Time;durP1;ratioP1;P1;durP2;ratioP2;P2;SDS_P1;SDS_P2;PMS_P1;PMS_P2;Temp;Humidity;BMP_temperature;BMP_pressure;BME280_temperature;BME280_humidity;BME280_pressure;Samples;Min_cycle;Max_cycle;Signal;HPM_P1;HPM_P2
2023/11/30 00:00:09;;;;;;;47.20;35.90;;;;;;;-2.37;100.00;99253.36;109337;1273;23624;-78
2023/11/30 00:03:06;;;;;;;50.00;36.20;;;;;;;-2.37;100.00;99253.36;109082;1273;22948;-79
2023/11/30 00:05:40;;;;;;;54.20;38.40;;;;;;;-2.34;100.00;99252.17;109996;1269;21995;-79
2023/11/30 00:08:19;;;;;;;54.40;37.10;;;;;;;-2.32;100.00;99248.08;110263;1261;22412;-79
2023/11/30 00:11:27;;;;;;;53.20;37.90;;;;;;;-2.31;100.00;99248.41;110601;1261;21980;-80
2023/11/30 00:14:22;;;;;;;43.10;30.10;;;;;;;-2.32;100.00;99252.84;110606;1261;21974;-79
2023/11/30 00:17:12;;;;;;;49.00;37.40;;;;;;;-2.41;100.00;99239.05;110433;1261;21993;-78
2023/11/30 00:20:03;;;;;;;42.50;31.00;;;;;;;-2.35;100.00;99253.87;110676;1261;21931;-79
2023/11/30 00:23:51;;;;;;;;;;;;;;;;;;;;;
2023/11/30 00:26:46;;;;;;;36.80;29.70;;;;;;;-2.37;100.00;99245.52;109980;1269;22143;-78
2023/11/30 00:29:32;;;;;;;37.00;28.40;;;;;;;-2.33;100.00;99248.41;109256;1273;23066;-77
2023/11/30 00:32:11;;;;;;;38.00;29.80;;;;;;;-2.30;100.00;99253.85;108813;1277;22078;-80
2023/11/30 00:34:55;;;;;;;39.10;29.00;;;;;;;-2.26;100.00;99254.19;108621;1282;22014;-77
2023/11/30 00:37:26;;;;;;;35.10;29.40;;;;;;;-2.23;100.00;99251.95;108619;1282;23847;-77
2023/11/30 00:40:15;;;;;;;35.00;28.10;;;;;;;-2.24;100.00;99251.96;108591;1282;23794;-80
2023/11/30 00:43:04;;;;;;;40.50;29.80;;;;;;;-2.25;100.00;99250.77;108567;1282;24135;-79
2023/11/30 00:46:00;;;;;;;34.90;28.10;;;;;;;-2.23;100.00;99258.60;108263;1287;24030;-77
2023/11/30 00:48:46;;;;;;;38.80;30.60;;;;;;;-2.21;100.00;99257.58;108424;1284;22014;-79
2023/11/30 00:51:23;;;;;;;39.30;31.40;;;;;;;-2.20;100.00;99258.42;108516;1284;21993;-77
2023/11/30 00:53:59;;;;;;;41.40;32.50;;;;;;;-2.18;100.00;99256.71;108644;1279;21995;-78
2023/11/30 00:56:38;;;;;;;37.80;30.40;;;;;;;-2.17;100.00;99262.84;109075;1261;23048;-78
2023/11/30 00:59:17;;;;;;;41.60;30.40;;;;;;;-2.19;100.00;99264.90;109029;1273;21997;-77
2023/11/30 01:01:47;;;;;;;36.20;28.90;;;;;;;-2.21;100.00;99267.98;109221;1273;23728;-77
2023/11/30 01:04:22;;;;;;;38.90;29.80;;;;;;;-2.26;100.00;99260.66;110025;1263;22385;-78
2023/11/30 01:06:52;;;;;;;43.90;31.00;;;;;;;-2.25;100.00;99259.80;110201;1262;21974;-76
2023/11/30 01:09:26;;;;;;;45.20;32.20;;;;;;;-2.18;100.00;99268.13;110534;1263;23045;-78
2023/11/30 01:12:01;;;;;;;41.70;31.60;;;;;;;-2.17;100.00;99267.62;110231;1263;23024;-78
2023/11/30 01:14:32;;;;;;;43.00;34.20;;;;;;;-2.15;100.00;99271.02;110533;1261;22848;-77
2023/11/30 01:17:05;;;;;;;39.50;32.70;;;;;;;-2.12;100.00;99265.91;109475;1269;24201;-79
2023/11/30 01:19:37;;;;;;;44.10;32.50;;;;;;;-2.08;100.00;99259.23;109696;1269;21990;-78
2023/11/30 01:22:17;;;;;;;42.40;32.50;;;;;;;-2.06;100.00;99265.35;109554;1269;22990;-78
2023/11/30 01:24:56;;;;;;;45.50;31.60;;;;;;;-2.04;100.00;99264.50;109502;1269;22027;-78
2023/11/30 01:27:27;;;;;;;45.10;33.20;;;;;;;-2.03;100.00;99266.71;109476;1265;22026;-78
2023/11/30 01:30:01;;;;;;;44.60;30.50;;;;;;;-2.02;100.00;99268.93;109810;1269;21984;-79
2023/11/30 01:32:31;;;;;;;43.40;32.80;;;;;;;-2.01;100.00;99268.40;109737;1269;22021;-78
2023/11/30 01:35:06;;;;;;;44.00;34.80;;;;;;;-2.01;100.00;99266.02;109141;1274;22018;-79
2023/11/30 01:37:40;;;;;;;43.50;34.10;;;;;;;-1.95;100.00;99264.13;109113;1271;22963;-78
2023/11/30 01:40:13;;;;;;;43.30;32.10;;;;;;;-1.92;100.00;99264.27;109160;1271;23033;-78
2023/11/30 01:42:48;;;;;;;38.80;30.80;;;;;;;-1.90;100.00;99267.85;109537;1269;21978;-78
2023/11/30 01:45:24;;;;;;;41.40;30.80;;;;;;;-1.91;100.00;99267.85;109969;1269;24543;-77
2023/11/30 01:47:59;;;;;;;40.00;30.70;;;;;;;-1.94;100.00;99270.42;109399;1269;22447;-78
2023/11/30 01:50:33;;;;;;;38.80;31.10;;;;;;;-1.97;100.00;99267.36;109759;1263;21984;-79
2023/11/30 01:53:07;;;;;;;50.30;33.70;;;;;;;-1.97;100.00;99262.77;109357;1269;22014;-78
2023/11/30 01:55:48;;;;;;;42.30;32.70;;;;;;;-1.95;100.00;99259.02;109617;1269;23631;-79
2023/11/30 01:58:20;;;;;;;44.10;31.20;;;;;;;-1.92;100.00;99255.92;109076;1271;23612;-78
2023/11/30 02:01:03;;;;;;;39.70;31.10;;;;;;;-1.91;100.00;99255.41;109113;1275;23615;-78
2023/11/30 02:03:35;;;;;;;41.10;29.60;;;;;;;-1.90;100.00;99262.23;108905;1279;23071;-78
2023/11/30 02:06:09;;;;;;;37.40;30.30;;;;;;;-1.91;100.00;99254.73;108877;1278;22105;-77
2023/11/30 02:08:42;;;;;;;34.70;29.70;;;;;;;-1.93;100.00;99250.13;108886;1279;22039;-77
2023/11/30 02:11:17;;;;;;;38.90;28.60;;;;;;;-1.91;100.00;99245.33;108901;1274;22001;-76
2023/11/30 02:13:48;;;;;;;40.50;29.00;;;;;;;-1.85;100.00;99246.34;109157;1273;23734;-78
2023/11/30 02:16:19;;;;;;;37.20;28.40;;;;;;;-1.83;100.00;99244.27;109232;1272;22189;-77
2023/11/30 02:18:51;;;;;;;39.10;29.00;;;;;;;-1.83;100.00;99238.14;109425;1272;22398;-79
2023/11/30 02:21:25;;;;;;;37.10;29.10;;;;;;;-1.81;100.00;99232.84;108920;1276;22000;-77
2023/11/30 02:23:59;;;;;;;34.80;28.50;;;;;;;-1.80;100.00;99230.96;109102;1276;21986;-79
2023/11/30 02:26:32;;;;;;;34.10;27.10;;;;;;;-1.78;100.00;99232.31;108636;1282;23724;-79
2023/11/30 02:29:05;;;;;;;38.60;28.20;;;;;;;-1.76;100.00;99235.38;108758;1278;23650;-78
2023/11/30 02:31:41;;;;;;;36.10;28.40;;;;;;;-1.77;100.00;99235.04;108671;1282;22146;-79
2023/11/30 02:34:11;;;;;;;35.60;25.50;;;;;;;-1.81;100.00;99235.41;108680;1281;21990;-80
2023/11/30 02:36:51;;;;;;;33.80;27.30;;;;;;;-1.83;100.00;99237.29;108925;1280;22022;-79
2023/11/30 02:39:21;;;;;;;35.70;27.40;;;;;;;-1.82;100.00;99244.45;108799;1277;21998;-79
2023/11/30 02:41:52;;;;;;;33.30;26.70;;;;;;;-1.83;100.00;99245.98;109089;1277;21996;-77
2023/11/30 02:44:29;;;;;;;30.50;24.60;;;;;;;-1.90;100.00;99233.92;109113;1272;22020;-78
2023/11/30 02:47:04;;;;;;;34.80;24.00;;;;;;;-1.82;100.00;99251.61;109186;1275;23042;-79
2023/11/30 02:49:35;;;;;;;32.00;24.80;;;;;;;-1.81;100.00;99252.27;109189;1273;23656;-81
2023/11/30 02:52:12;;;;;;;31.20;24.80;;;;;;;-1.83;100.00;99252.13;109036;1276;22028;-79
2023/11/30 02:54:49;;;;;;;29.60;23.60;;;;;;;-1.86;100.00;99253.67;108794;1280;21992;-79
2023/11/30 02:57:21;;;;;;;29.30;22.40;;;;;;;-1.86;100.00;99254.35;109119;1271;21995;-80
2023/11/30 02:59:55;;;;;;;29.60;21.40;;;;;;;-1.94;100.00;99244.33;108962;1280;22002;-79
2023/11/30 03:02:34;;;;;;;29.50;23.00;;;;;;;-1.93;100.00;99246.21;108833;1280;23814;-79
2023/11/30 03:05:03;;;;;;;26.70;21.00;;;;;;;-1.79;100.00;99257.21;108594;1282;22055;-77
2023/11/30 03:07:34;;;;;;;28.90;23.20;;;;;;;-1.75;100.00;99261.13;108626;1287;22000;-78
2023/11/30 03:10:03;;;;;;;25.30;21.00;;;;;;;-1.69;100.00;99263.14;108675;1285;22015;-78
2023/11/30 03:12:37;;;;;;;27.00;22.20;;;;;;;-1.63;100.00;99264.64;108175;1286;21999;-78
2023/11/30 03:15:12;;;;;;;28.70;22.80;;;;;;;-1.54;100.00;99268.35;108600;1277;22008;-79
2023/11/30 03:17:47;;;;;;;27.30;23.20;;;;;;;-1.46;100.00;99268.97;108225;1286;22022;-78
2023/11/30 03:20:18;;;;;;;26.50;22.10;;;;;;;-1.39;100.00;99263.81;107924;1289;22014;-78
2023/11/30 03:22:49;;;;;;;25.90;21.40;;;;;;;-1.40;100.00;99251.87;108076;1284;21998;-77
2023/11/30 03:25:21;;;;;;;25.40;21.90;;;;;;;-1.30;100.00;99265.96;108558;1279;23809;-78
2023/11/30 03:28:02;;;;;;;24.90;20.80;;;;;;;-1.30;100.00;99268.70;108584;1282;22773;-78
2023/11/30 03:30:41;;;;;;;22.10;19.50;;;;;;;-1.29;100.00;99265.63;108934;1276;21998;-79
2023/11/30 03:33:14;;;;;;;23.60;20.80;;;;;;;-1.32;100.00;99266.33;109006;1276;24238;-79
2023/11/30 03:35:50;;;;;;;23.70;20.40;;;;;;;-1.33;100.00;99265.14;108557;1282;22081;-78
2023/11/30 03:38:23;;;;;;;23.30;19.40;;;;;;;-1.36;100.00;99266.52;108429;1283;23691;-77
2023/11/30 03:41:01;;;;;;;31.10;24.80;;;;;;;-1.38;100.00;99264.14;108215;1289;22004;-77
2023/11/30 03:43:34;;;;;;;31.50;27.00;;;;;;;-1.36;100.00;99262.25;108470;1283;22007;-78
2023/11/30 03:46:07;;;;;;;28.00;22.50;;;;;;;-1.34;100.00;99265.84;108501;1283;23777;-77
2023/11/30 03:48:43;;;;;;;26.30;21.90;;;;;;;-1.33;100.00;99262.41;108589;1283;22280;-78
2023/11/30 03:51:17;;;;;;;27.30;23.10;;;;;;;-1.32;100.00;99263.77;108502;1283;21995;-77
2023/11/30 03:53:48;;;;;;;31.30;23.50;;;;;;;-1.29;100.00;99259.48;108841;1273;22000;-78
2023/11/30 03:56:24;;;;;;;28.30;21.60;;;;;;;-1.25;100.00;99261.33;108928;1275;21950;-77
2023/11/30 03:58:55;;;;;;;27.30;22.80;;;;;;;-1.23;100.00;99259.61;109324;1269;22020;-79
2023/11/30 04:01:28;;;;;;;25.40;22.00;;;;;;;-1.22;100.00;99258.40;109190;1274;22040;-78
2023/11/30 04:03:59;;;;;;;26.60;21.70;;;;;;;-1.22;100.00;99253.45;109091;1269;22952;-77
2023/11/30 04:06:29;;;;;;;26.50;23.50;;;;;;;-1.19;100.00;99259.73;108569;1280;23618;-78
2023/11/30 04:09:00;;;;;;;30.60;24.40;;;;;;;-1.15;100.00;99260.57;108462;1285;24450;-77
2023/11/30 04:11:30;;;;;;;25.10;21.60;;;;;;;-1.15;100.00;99256.63;108466;1285;23056;-78
2023/11/30 04:14:07;;;;;;;27.40;22.20;;;;;;;-1.14;100.00;99253.56;107954;1281;23074;-79
2023/11/30 04:16:50;;;;;;;25.20;21.20;;;;;;;-1.13;100.00;99253.38;108366;1285;23086;-77
2023/11/30 04:19:21;;;;;;;26.30;22.70;;;;;;;-1.14;100.00;99251.50;108507;1285;22097;-79
2023/11/30 04:21:52;;;;;;;28.50;23.90;;;;;;;-1.15;100.00;99249.29;107896;1289;22009;-77
2023/11/30 04:24:27;;;;;;;24.90;21.30;;;;;;;-1.17;100.00;99250.67;107986;1288;22074;-78
2023/11/30 04:27:02;;;;;;;78.20;59.80;;;;;;;-1.19;100.00;99254.61;108380;1284;22131;-78
2023/11/30 04:29:42;;;;;;;34.40;27.10;;;;;;;-1.21;100.00;99253.61;108891;1284;21995;-79
2023/11/30 04:32:41;;;;;;;32.80;23.00;;;;;;;-1.25;100.00;99255.17;108939;1278;22019;-79
2023/11/30 04:35:39;;;;;;;44.60;31.40;;;;;;;-1.30;100.00;99253.17;108957;1279;23069;-81
2023/11/30 04:38:34;;;;;;;37.10;28.20;;;;;;;-1.33;100.00;99255.58;108858;1282;22055;-79
2023/11/30 04:41:05;;;;;;;39.20;28.50;;;;;;;-1.34;100.00;99255.42;109068;1276;21993;-77
2023/11/30 04:43:37;;;;;;;30.50;24.80;;;;;;;-1.34;100.00;99259.17;109090;1276;22089;-78
2023/11/30 04:46:09;;;;;;;35.20;24.60;;;;;;;-1.35;100.00;99262.25;109004;1276;22107;-79
2023/11/30 04:48:42;;;;;;;35.90;24.80;;;;;;;-1.36;100.00;99265.66;108950;1276;24296;-78
2023/11/30 04:51:48;;;;;;;36.90;26.70;;;;;;;-1.38;100.00;99270.80;109363;1276;23049;-81
2023/11/30 04:54:24;;;;;;;38.20;28.20;;;;;;;-1.45;100.00;99269.47;108969;1278;22074;-78
2023/11/30 04:56:55;;;;;;;38.00;28.10;;;;;;;-1.46;100.00;99267.77;109231;1274;21958;-78
2023/11/30 04:59:28;;;;;;;33.90;24.10;;;;;;;-1.45;100.00;99272.03;109346;1276;23078;-78
2023/11/30 05:02:01;;;;;;;33.30;25.20;;;;;;;-1.49;100.00;99272.23;108866;1281;23809;-79
2023/11/30 05:04:37;;;;;;;31.30;26.10;;;;;;;-1.54;100.00;99273.63;108318;1287;22090;-79
2023/11/30 05:07:11;;;;;;;30.50;25.60;;;;;;;-1.59;100.00;99275.38;108087;1290;22491;-77
2023/11/30 05:09:55;;;;;;;30.20;25.00;;;;;;;-1.64;100.00;99278.80;108154;1290;22366;-79
2023/11/30 05:12:40;;;;;;;33.80;26.90;;;;;;;-1.69;100.00;99279.52;108279;1289;24452;-77
2023/11/30 05:15:25;;;;;;;33.50;25.20;;;;;;;-1.74;100.00;99274.08;108252;1290;22089;-79
2023/11/30 05:18:09;;;;;;;30.60;25.00;;;;;;;-1.81;100.00;99275.65;108310;1286;22074;-79
2023/11/30 05:20:54;;;;;;;32.00;26.40;;;;;;;-1.86;100.00;99276.19;108168;1289;23149;-79
2023/11/30 05:23:39;;;;;;;31.80;26.30;;;;;;;-1.89;100.00;99273.13;108476;1284;22849;-80
2023/11/30 05:26:29;;;;;;;32.70;27.70;;;;;;;-1.90;100.00;99273.83;108651;1279;22033;-81
2023/11/30 05:29:15;;;;;;;33.00;26.80;;;;;;;-1.92;100.00;99273.48;109106;1278;22086;-78
2023/11/30 05:31:47;;;;;;;33.10;27.90;;;;;;;-1.92;100.00;99274.16;109172;1272;23155;-76
2023/11/30 05:34:24;;;;;;;34.50;27.90;;;;;;;-1.94;100.00;99276.56;109005;1276;23798;-78
2023/11/30 05:37:04;;;;;;;57.30;31.00;;;;;;;-1.95;100.00;99276.23;109115;1276;21989;-78
2023/11/30 05:39:47;;;;;;;39.70;28.80;;;;;;;-1.96;100.00;99276.06;109146;1273;21985;-77
2023/11/30 05:42:18;;;;;;;41.00;31.10;;;;;;;-1.97;100.00;99277.76;108953;1278;22005;-78
2023/11/30 05:44:48;;;;;;;40.40;31.20;;;;;;;-1.99;100.00;99278.29;109258;1274;23727;-79
2023/11/30 05:47:21;;;;;;;33.60;29.60;;;;;;;-2.00;100.00;99282.38;108718;1279;22031;-78
2023/11/30 05:49:56;;;;;;;37.60;29.20;;;;;;;-2.00;100.00;99285.95;108752;1280;23084;-78
2023/11/30 05:52:39;;;;;;;32.90;26.50;;;;;;;-1.99;100.00;99284.59;108884;1280;22015;-78
2023/11/30 05:55:21;;;;;;;44.50;34.40;;;;;;;-2.00;100.00;99285.11;105696;1268;23773;-79
2023/11/30 05:57:51;;;;;;;45.20;34.80;;;;;;;-2.00;100.00;99284.61;108971;1279;22342;-78
2023/11/30 06:00:35;;;;;;;41.10;32.30;;;;;;;-2.01;100.00;99284.25;109539;1268;24152;-80
2023/11/30 06:03:23;;;;;;;44.90;33.10;;;;;;;-2.01;100.00;99280.35;109802;1268;22139;-79
2023/11/30 06:05:54;;;;;;;38.60;30.80;;;;;;;-1.99;100.00;99280.16;109976;1268;21974;-79
2023/11/30 06:08:28;;;;;;;39.90;30.60;;;;;;;-1.95;100.00;99277.25;109978;1268;23048;-80
2023/11/30 06:10:58;;;;;;;39.20;31.80;;;;;;;-1.94;100.00;99278.44;109048;1273;21998;-77
2023/11/30 06:13:34;;;;;;;43.40;32.40;;;;;;;-1.92;100.00;99277.06;108956;1274;22088;-79
2023/11/30 06:16:11;;;;;;;37.80;29.90;;;;;;;-1.92;100.00;99283.19;109518;1274;23748;-79
2023/11/30 06:18:45;;;;;;;37.30;30.90;;;;;;;-1.91;100.00;99284.55;108966;1277;22084;-79
2023/11/30 06:21:17;;;;;;;44.10;33.40;;;;;;;-1.93;100.00;99290.88;108881;1277;23695;-79
2023/11/30 06:23:53;;;;;;;55.20;40.30;;;;;;;-1.94;100.00;99291.73;109108;1277;22000;-79
2023/11/30 06:26:25;;;;;;;47.20;38.50;;;;;;;-1.94;100.00;99292.23;108641;1282;22070;-78
2023/11/30 06:28:56;;;;;;;56.80;43.40;;;;;;;-1.95;100.00;99297.89;108893;1276;22000;-78
2023/11/30 06:31:31;;;;;;;54.00;40.50;;;;;;;-1.96;100.00;99292.43;109045;1277;21997;-77
2023/11/30 06:34:03;;;;;;;49.80;37.20;;;;;;;-1.94;100.00;99294.29;109084;1276;21992;-77
2023/11/30 06:36:40;;;;;;;67.20;42.10;;;;;;;-1.95;100.00;99297.54;109080;1276;22001;-78
2023/11/30 06:39:11;;;;;;;79.10;50.00;;;;;;;-1.96;100.00;99298.91;109228;1273;23071;-79
2023/11/30 06:41:49;;;;;;;79.30;49.80;;;;;;;-1.94;100.00;99302.32;109116;1273;22032;-77
2023/11/30 06:44:28;;;;;;;77.10;52.30;;;;;;;-1.97;100.00;99301.47;109193;1273;23450;-78
2023/11/30 06:47:01;;;;;;;121.80;75.00;;;;;;;-1.97;100.00;99302.32;109102;1273;22458;-80
2023/11/30 06:49:37;;;;;;;426.90;230.60;;;;;;;-1.99;100.00;99305.23;109377;1271;22010;-79
2023/11/30 06:52:18;;;;;;;467.60;225.70;;;;;;;-2.01;100.00;99309.48;110102;1268;23864;-79
2023/11/30 06:54:57;;;;;;;346.70;150.80;;;;;;;-2.02;100.00;99314.45;109137;1273;24323;-82
2023/11/30 06:57:30;;;;;;;162.30;76.00;;;;;;;-2.04;100.00;99324.87;109220;1260;23052;-78
2023/11/30 07:00:11;;;;;;;109.40;64.10;;;;;;;-2.10;100.00;99325.39;109158;1273;24407;-85
2023/11/30 07:02:46;;;;;;;105.80;64.60;;;;;;;-2.16;100.00;99326.77;109574;1273;21980;-77
2023/11/30 07:05:21;;;;;;;108.80;71.80;;;;;;;-2.19;100.00;99330.35;109301;1267;22967;-78
2023/11/30 07:08:00;;;;;;;144.00;92.80;;;;;;;-2.21;100.00;99335.13;109008;1276;23069;-82
2023/11/30 07:10:44;;;;;;;116.00;77.10;;;;;;;-2.24;100.00;99337.17;109576;1271;21977;-79
2023/11/30 07:13:28;;;;;;;119.60;80.10;;;;;;;-2.22;100.00;99335.80;109653;1271;21989;-80
2023/11/30 07:16:03;;;;;;;107.50;71.20;;;;;;;-2.16;100.00;99336.13;109794;1270;22047;-79
2023/11/30 07:18:38;;;;;;;94.30;67.30;;;;;;;-2.11;100.00;99341.23;109493;1274;22034;-81
2023/11/30 07:21:20;;;;;;;134.70;74.40;;;;;;;-2.04;100.00;99341.56;109460;1274;21873;-81
2023/11/30 07:24:06;;;;;;;113.10;69.70;;;;;;;-1.95;100.00;99342.73;109167;1277;22305;-80
2023/11/30 07:26:48;;;;;;;86.40;60.90;;;;;;;-1.84;100.00;99343.04;109526;1272;21998;-78
2023/11/30 07:29:29;;;;;;;90.30;65.50;;;;;;;-1.74;100.00;99342.66;109335;1272;22009;-80
2023/11/30 07:32:16;;;;;;;;;;;;;;;;;;;;;
2023/11/30 07:34:51;;;;;;;88.70;65.60;;;;;;;-1.57;100.00;99337.81;109270;1276;21999;-81
2023/11/30 07:37:40;;;;;;;90.80;65.90;;;;;;;-1.51;100.00;99339.83;109455;1268;22481;-79
2023/11/30 07:40:16;;;;;;;97.30;66.10;;;;;;;-1.46;100.00;99340.48;109076;1276;23000;-79
2023/11/30 07:42:52;;;;;;;116.00;74.80;;;;;;;-1.42;100.00;99346.08;108752;1278;24236;-79
2023/11/30 07:45:29;;;;;;;107.70;71.60;;;;;;;-1.37;100.00;99346.58;108992;1278;21995;-79
2023/11/30 07:48:03;;;;;;;109.00;65.40;;;;;;;-1.34;100.00;99346.39;109109;1278;22017;-79
2023/11/30 07:50:37;;;;;;;92.00;58.90;;;;;;;-1.31;100.00;99347.23;108881;1278;23146;-80
2023/11/30 07:53:14;;;;;;;90.20;58.20;;;;;;;-1.32;100.00;99349.44;109020;1275;21987;-80
2023/11/30 07:55:56;;;;;;;90.80;59.00;;;;;;;-1.32;100.00;99353.04;109095;1279;21995;-80
2023/11/30 07:58:35;;;;;;;87.60;57.70;;;;;;;-1.29;100.00;99354.72;109262;1274;23728;-79
2023/11/30 08:01:05;;;;;;;91.50;62.00;;;;;;;-1.26;100.00;99350.95;109364;1271;23605;-81
2023/11/30 08:03:42;;;;;;;110.00;67.90;;;;;;;-1.23;100.00;99349.57;109219;1273;21977;-77
2023/11/30 08:06:18;;;;;;;120.80;72.90;;;;;;;-1.19;100.00;99347.84;109138;1279;23732;-79
2023/11/30 08:09:02;;;;;;;114.60;70.10;;;;;;;-1.13;100.00;99350.53;108875;1277;23618;-80
2023/11/30 08:11:49;;;;;;;138.80;75.50;;;;;;;-1.07;100.00;99353.39;108873;1279;22013;-77
2023/11/30 08:14:22;;;;;;;273.40;120.30;;;;;;;-0.97;100.00;99350.92;108836;1277;23049;-76
2023/11/30 08:16:56;;;;;;;195.50;119.10;;;;;;;-0.86;100.00;99348.96;108916;1275;21989;-77
2023/11/30 08:19:26;;;;;;;138.50;85.50;;;;;;;-0.73;100.00;99343.41;108890;1274;22090;-77
2023/11/30 08:21:56;;;;;;;117.00;73.10;;;;;;;-0.60;100.00;99343.98;109057;1277;22721;-78
2023/11/30 08:24:29;;;;;;;94.70;60.90;;;;;;;-0.48;100.00;99347.13;108739;1277;22026;-77
2023/11/30 08:27:02;;;;;;;84.20;55.90;;;;;;;-0.37;100.00;99341.57;109278;1273;23047;-79
2023/11/30 08:29:35;;;;;;;127.60;73.80;;;;;;;-0.28;100.00;99336.85;109405;1273;23073;-76
2023/11/30 08:32:05;;;;;;;88.80;56.90;;;;;;;-0.22;100.00;99335.59;109644;1269;24217;-76
2023/11/30 08:34:35;;;;;;;96.80;61.50;;;;;;;-0.16;100.00;99336.39;109172;1274;22485;-76
2023/11/30 08:37:05;;;;;;;95.30;61.60;;;;;;;-0.04;100.00;99336.77;109137;1275;22787;-78
2023/11/30 08:39:40;;;;;;;96.20;62.20;;;;;;;0.12;100.00;99335.57;109120;1275;22345;-75
2023/11/30 08:42:13;;;;;;;91.20;63.00;;;;;;;0.34;100.00;99336.86;109307;1267;23063;-79
2023/11/30 08:44:43;;;;;;;93.40;63.90;;;;;;;0.47;100.00;99336.84;109633;1270;22024;-77
2023/11/30 08:47:13;;;;;;;82.90;60.10;;;;;;;0.46;100.00;99327.98;109768;1270;22003;-78
2023/11/30 08:50:29;;;;;;;83.30;56.50;;;;;;;0.57;100.00;99340.50;109996;1270;22000;-78
2023/11/30 08:53:01;;;;;;;93.00;69.80;;;;;;;0.63;100.00;99340.06;110001;1269;21987;-77
2023/11/30 08:55:32;;;;;;;99.60;73.90;;;;;;;0.68;100.00;99342.73;109695;1269;23618;-77
2023/11/30 08:58:04;;;;;;;151.00;105.90;;;;;;;0.69;100.00;99346.84;109175;1273;23014;-76
2023/11/30 09:00:35;;;;;;;105.00;77.60;;;;;;;0.70;100.00;99344.26;109678;1268;23087;-78
2023/11/30 09:03:10;;;;;;;102.00;78.50;;;;;;;0.72;100.00;99345.09;109882;1268;21981;-76
2023/11/30 09:05:48;;;;;;;118.10;96.70;;;;;;;0.74;100.00;99343.86;109179;1274;23088;-77
2023/11/30 09:08:33;;;;;;;90.00;72.80;;;;;;;0.77;100.00;99342.79;109201;1274;22970;-78
2023/11/30 09:11:07;;;;;;;75.40;65.50;;;;;;;0.83;100.00;99342.20;109096;1274;23069;-76
2023/11/30 09:13:40;;;;;;;74.80;62.10;;;;;;;0.90;100.00;99341.75;109307;1273;22591;-78
2023/11/30 09:16:14;;;;;;;69.60;58.20;;;;;;;0.97;100.00;99343.54;109420;1269;23755;-75
2023/11/30 09:18:47;;;;;;;74.30;59.90;;;;;;;1.02;100.00;99344.66;110435;1267;21848;-76
2023/11/30 09:21:55;;;;;;;71.40;56.10;;;;;;;1.08;100.00;99346.11;109771;1267;21980;-78
2023/11/30 09:24:40;;;;;;;67.50;50.90;;;;;;;1.12;100.00;99349.98;110304;1261;22113;-76
2023/11/30 09:27:15;;;;;;;79.90;65.40;;;;;;;1.16;100.00;99348.91;110832;1261;24382;-76
2023/11/30 09:30:21;;;;;;;93.90;76.80;;;;;;;1.14;100.00;99349.11;110142;1266;23637;-75
2023/11/30 09:33:04;;;;;;;88.40;72.30;;;;;;;1.20;100.00;99348.48;110195;1266;21977;-76
2023/11/30 09:35:39;;;;;;;85.50;74.10;;;;;;;1.36;100.00;99344.64;109597;1265;23164;-77
2023/11/30 09:38:26;;;;;;;68.60;59.20;;;;;;;1.57;100.00;99338.29;109022;1276;23718;-76
2023/11/30 09:41:00;;;;;;;53.50;47.20;;;;;;;1.74;100.00;99333.53;108859;1277;22089;-77
2023/11/30 09:43:36;;;;;;;46.60;39.70;;;;;;;1.90;100.00;99334.45;108517;1281;23671;-78
2023/11/30 09:46:16;;;;;;;43.60;38.90;;;;;;;2.06;100.00;99330.54;108526;1281;22573;-79
2023/11/30 09:48:53;;;;;;;44.20;39.50;;;;;;;2.20;100.00;99333.17;108913;1274;22192;-76
2023/11/30 09:51:40;;;;;;;51.80;44.20;;;;;;;2.29;100.00;99327.51;108842;1280;22992;-76
2023/11/30 09:54:38;;;;;;;53.30;46.80;;;;;;;2.26;100.00;99322.25;108629;1284;22877;-83
2023/11/30 09:57:23;;;;;;;36.80;31.70;;;;;;;2.19;100.00;99322.91;109089;1278;21945;-75
2023/11/30 09:59:58;;;;;;;30.60;27.30;;;;;;;2.09;100.00;99323.93;108989;1277;23745;-76
2023/11/30 10:02:41;;;;;;;35.30;28.90;;;;;;;1.96;100.00;99317.67;109109;1272;23065;-81
2023/11/30 10:05:47;;;;;;;39.70;31.90;;;;;;;1.89;100.00;99314.23;109174;1276;23729;-80
2023/11/30 10:08:39;;;;;;;40.30;32.00;;;;;;;1.86;100.00;99317.88;109125;1277;22172;-77
2023/11/30 10:11:16;;;;;;;33.80;29.70;;;;;;;1.83;100.00;99315.00;108897;1277;21959;-76
2023/11/30 10:13:52;;;;;;;40.10;32.60;;;;;;;1.80;100.00;99315.58;109250;1271;23820;-75
2023/11/30 10:16:28;;;;;;;41.90;33.60;;;;;;;1.72;100.00;99316.41;109885;1267;23816;-77
2023/11/30 10:19:10;;;;;;;38.70;31.30;;;;;;;1.69;100.00;99313.71;110063;1267;21972;-76
2023/11/30 10:21:41;;;;;;;43.40;34.20;;;;;;;1.72;100.00;99313.84;110143;1267;23428;-76
2023/11/30 10:24:17;;;;;;;49.10;35.40;;;;;;;1.67;100.00;99313.25;110154;1253;23072;-78
2023/11/30 10:26:51;;;;;;;51.20;38.80;;;;;;;1.62;100.00;99312.46;110661;1262;22966;-77
2023/11/30 10:29:30;;;;;;;40.90;35.40;;;;;;;1.52;100.00;99313.85;110411;1259;22117;-77
2023/11/30 10:32:16;;;;;;;47.60;39.10;;;;;;;1.42;100.00;99309.74;110473;1262;23035;-78
2023/11/30 10:34:57;;;;;;;76.90;56.80;;;;;;;1.41;100.00;99304.09;110540;1249;21975;-77
2023/11/30 10:37:47;;;;;;;67.10;53.10;;;;;;;1.46;100.00;99300.58;110216;1258;21993;-78
2023/11/30 10:40:20;;;;;;;52.00;40.40;;;;;;;1.50;100.00;99300.33;110471;1252;21985;-78
2023/11/30 10:42:57;;;;;;;45.70;39.60;;;;;;;1.52;100.00;99302.02;110467;1259;22315;-79
2023/11/30 10:46:05;;;;;;;40.30;32.60;;;;;;;1.51;100.00;99297.40;110495;1262;21975;-78
2023/11/30 10:48:55;;;;;;;35.20;30.90;;;;;;;1.47;100.00;99296.63;110389;1258;21939;-77
2023/11/30 10:51:30;;;;;;;44.60;30.80;;;;;;;1.47;100.00;99299.89;110538;1262;22013;-77
2023/11/30 10:54:54;;;;;;;33.20;28.90;;;;;;;1.45;100.00;99298.37;109572;1269;21979;-77
2023/11/30 10:57:30;;;;;;;41.40;34.60;;;;;;;1.41;100.00;99298.10;109757;1269;22047;-77
2023/11/30 11:00:05;;;;;;;42.50;36.20;;;;;;;1.39;100.00;99295.55;109538;1269;21989;-77
2023/11/30 11:02:43;;;;;;;48.10;37.60;;;;;;;1.37;100.00;99294.58;110003;1265;23679;-78
2023/11/30 11:05:21;;;;;;;44.80;34.40;;;;;;;1.31;100.00;99290.73;109167;1274;22859;-73
2023/11/30 11:08:01;;;;;;;40.90;34.50;;;;;;;1.30;100.00;99296.92;108954;1277;22011;-74
2023/11/30 11:10:39;;;;;;;49.40;38.20;;;;;;;1.32;100.00;99294.64;108668;1281;24569;-76
2023/11/30 11:13:22;;;;;;;57.00;42.80;;;;;;;1.34;100.00;99293.94;108970;1277;22885;-75
2023/11/30 11:16:00;;;;;;;46.30;36.70;;;;;;;1.34;100.00;99292.90;109039;1276;21994;-76
2023/11/30 11:18:42;;;;;;;51.30;42.70;;;;;;;1.37;100.00;99294.91;108966;1277;22088;-76
2023/11/30 11:21:28;;;;;;;57.50;42.20;;;;;;;1.35;100.00;99288.78;108529;1282;22002;-77
2023/11/30 11:24:07;;;;;;;56.40;45.80;;;;;;;1.29;100.00;99288.86;108783;1279;22945;-76
2023/11/30 11:26:46;;;;;;;51.90;42.60;;;;;;;1.29;100.00;99288.88;108940;1275;23657;-76
2023/11/30 11:29:21;;;;;;;52.90;41.20;;;;;;;1.30;100.00;99286.80;109517;1270;23612;-75
2023/11/30 11:32:10;;;;;;;58.10;48.40;;;;;;;1.30;100.00;99281.84;109465;1270;21993;-78
2023/11/30 11:34:40;;;;;;;71.80;60.40;;;;;;;1.26;100.00;99277.44;109289;1274;22005;-75
2023/11/30 11:37:16;;;;;;;67.80;54.80;;;;;;;1.24;100.00;99272.85;108872;1278;22003;-77
2023/11/30 11:39:51;;;;;;;53.00;41.00;;;;;;;1.24;100.00;99275.92;109123;1273;22010;-76
2023/11/30 11:42:21;;;;;;;59.20;46.60;;;;;;;1.25;100.00;99282.10;108894;1277;24148;-74
2023/11/30 11:44:50;;;;;;;67.90;51.10;;;;;;;1.25;100.00;99280.72;108502;1283;23880;-76
2023/11/30 11:47:22;;;;;;;54.70;36.90;;;;;;;1.30;100.00;99277.54;108594;1283;22122;-76
2023/11/30 11:49:57;;;;;;;58.30;47.90;;;;;;;1.29;100.00;99274.30;108573;1277;23091;-76
2023/11/30 11:52:32;;;;;;;47.70;37.50;;;;;;;1.31;100.00;99274.44;108286;1285;22077;-76